Time;durP1;ratioP1;P1;durP2;ratioP2;P2;SDS_P1;SDS_P2;PMS_P1;PMS_P2;Temp;Humidity;BMP_temperature;BMP_pressure;BME280_temperature;BME280_humidity;BME280_pressure;Samples;Min_cycle;Max_cycle;Signal;HPM_P1;HPM_P2
2024/01/17 00:05:05;;;;;;;3.83;1.35;;;;;;;15.86;42.10;99664.91;21008980;28;20044;-71
2024/01/17 00:15:07;;;;;;;2.00;1.05;;;;;;;15.83;41.93;99651.78;21045732;28;20044;-72
2024/01/17 00:25:09;;;;;;;1.77;1.20;;;;;;;15.80;42.14;99645.72;21018767;28;20123;-72
2024/01/17 00:35:10;;;;;;;2.22;1.15;;;;;;;15.78;41.82;99636.16;21026796;28;20055;-72
2024/01/17 00:45:13;;;;;;;1.83;1.40;;;;;;;15.74;41.83;99606.09;21004709;28;20105;-71
2024/01/17 00:55:15;;;;;;;1.65;1.02;;;;;;;15.73;41.86;99603.59;21020507;28;20044;-71
2024/01/17 01:05:17;;;;;;;1.48;1.23;;;;;;;15.71;41.69;99584.13;21001980;28;20048;-71
2024/01/17 01:15:19;;;;;;;2.45;1.40;;;;;;;15.73;41.88;99571.38;21041304;28;20040;-71
2024/01/17 01:25:21;;;;;;;2.45;1.33;;;;;;;15.69;41.49;99549.38;21019953;28;20553;-71
2024/01/17 01:35:23;;;;;;;2.20;1.55;;;;;;;15.62;41.52;99537.59;21040299;28;20059;-70
2024/01/17 01:45:25;;;;;;;2.58;1.70;;;;;;;15.64;41.26;99535.59;21038090;28;20055;-72
2024/01/17 01:55:26;;;;;;;2.38;1.48;;;;;;;15.62;41.64;99532.22;20990372;28;20094;-72
2024/01/17 02:05:28;;;;;;;1.70;1.20;;;;;;;15.54;41.30;99506.16;21018742;28;20056;-72
2024/01/17 02:15:31;;;;;;;1.95;1.67;;;;;;;15.63;41.26;99512.44;21036952;28;20127;-72
2024/01/17 02:25:32;;;;;;;2.03;1.50;;;;;;;15.61;41.04;99492.97;21032407;28;20044;-72
2024/01/17 02:35:36;;;;;;;2.20;1.80;;;;;;;15.59;41.42;99468.16;21048399;28;20040;-72
2024/01/17 02:45:38;;;;;;;3.25;1.70;;;;;;;15.57;41.53;99454.88;21041320;28;20076;-72
2024/01/17 02:55:40;;;;;;;3.38;2.05;;;;;;;15.54;41.54;99424.88;21043785;28;20052;-72
2024/01/17 03:05:42;;;;;;;3.17;1.67;;;;;;;15.58;41.25;99424.38;21045045;28;20102;-72
2024/01/17 03:15:43;;;;;;;2.88;2.08;;;;;;;15.54;41.57;99414.97;21044146;28;20381;-72
2024/01/17 03:25:45;;;;;;;3.00;2.22;;;;;;;15.55;41.32;99391.69;21044080;28;20095;-72
2024/01/17 03:35:47;;;;;;;4.07;1.75;;;;;;;15.55;41.22;99359.50;21039616;28;20056;-72
2024/01/17 03:45:49;;;;;;;3.00;2.00;;;;;;;15.54;40.99;99349.75;21062070;28;20516;-72
2024/01/17 03:55:51;;;;;;;3.42;2.00;;;;;;;15.54;41.25;99339.03;21024361;28;20056;-72
2024/01/17 04:05:52;;;;;;;2.72;1.98;;;;;;;15.52;41.03;99328.44;21017423;28;20054;-72
2024/01/17 04:15:54;;;;;;;2.45;1.67;;;;;;;15.54;41.02;99309.53;21045080;28;20055;-71
2024/01/17 04:25:56;;;;;;;1.95;1.60;;;;;;;15.54;40.96;99286.22;21034677;28;20056;-72
2024/01/17 04:35:59;;;;;;;3.13;1.85;;;;;;;15.52;41.24;99269.44;21044097;28;20052;-71
2024/01/17 04:46:01;;;;;;;3.30;1.80;;;;;;;15.56;40.92;99249.34;21040480;28;20043;-71
2024/01/17 04:56:05;;;;;;;2.97;1.80;;;;;;;15.55;40.77;99236.09;21035662;28;20101;-71
2024/01/17 05:06:08;;;;;;;2.03;1.80;;;;;;;15.54;40.84;99221.00;21032007;28;20059;-72
2024/01/17 05:16:10;;;;;;;3.20;1.70;;;;;;;15.52;40.46;99213.13;21038084;28;20047;-72
2024/01/17 05:26:11;;;;;;;2.95;1.77;;;;;;;15.51;40.62;99192.66;21035649;28;20117;-72
2024/01/17 05:36:14;;;;;;;2.78;1.65;;;;;;;15.50;40.61;99180.25;21032711;28;20066;-71
2024/01/17 05:46:16;;;;;;;1.63;1.42;;;;;;;15.49;40.63;99174.06;21031023;28;20525;-71
2024/01/17 05:56:20;;;;;;;2.15;1.60;;;;;;;15.51;40.81;99145.25;21015776;28;20048;-72
2024/01/17 06:06:22;;;;;;;2.50;1.70;;;;;;;15.50;40.52;99143.56;20961266;28;20480;-72
2024/01/17 06:16:24;;;;;;;2.80;1.50;;;;;;;15.49;40.66;99120.44;21035772;28;20119;-72
2024/01/17 06:26:26;;;;;;;2.85;1.50;;;;;;;15.44;40.37;99106.66;21018530;28;20048;-71
2024/01/17 06:36:27;;;;;;;2.80;1.95;;;;;;;15.50;40.33;99091.75;21030293;28;20070;-71
2024/01/17 06:46:29;;;;;;;2.75;1.70;;;;;;;15.49;40.50;99071.31;21028867;28;20548;-71
2024/01/17 06:56:32;;;;;;;2.30;1.60;;;;;;;15.46;40.28;99071.63;21014438;28;20052;-72
2024/01/17 07:06:35;;;;;;;3.08;1.73;;;;;;;15.39;40.22;99063.41;21000011;28;20094;-72
2024/01/17 07:16:37;;;;;;;2.83;1.80;;;;;;;15.36;40.25;99053.88;21034727;28;20052;-68
2024/01/17 07:26:38;;;;;;;3.75;1.98;;;;;;;15.57;40.55;99040.97;21029629;28;20458;-76
2024/01/17 07:36:40;;;;;;;2.63;1.70;;;;;;;15.91;40.59;99045.38;21008379;28;20055;-70
2024/01/17 07:46:42;;;;;;;3.00;1.63;;;;;;;16.14;40.39;99048.22;20988827;28;20200;-70
2024/01/17 07:56:43;;;;;;;2.78;1.83;;;;;;;16.32;40.13;99023.81;21016194;28;20109;-70
2024/01/17 08:06:45;;;;;;;2.63;1.75;;;;;;;16.44;39.79;98994.75;21016157;28;20052;-70
2024/01/17 08:16:48;;;;;;;3.05;2.15;;;;;;;16.53;39.50;98985.63;21013766;28;20047;-71
2024/01/17 08:26:50;;;;;;;2.42;1.75;;;;;;;16.73;39.47;98970.94;21032743;28;20073;-70
2024/01/17 08:36:54;;;;;;;2.95;1.88;;;;;;;16.92;39.41;98959.78;21000619;28;20052;-65
2024/01/17 08:46:56;;;;;;;2.78;2.08;;;;;;;16.96;39.28;98950.34;20994707;28;20052;-64
2024/01/17 08:56:57;;;;;;;3.42;2.20;;;;;;;16.98;39.29;98944.78;21035611;28;20047;-64
2024/01/17 09:06:59;;;;;;;3.30;2.00;;;;;;;17.06;39.23;98917.88;21021059;28;20098;-64
2024/01/17 09:17:03;;;;;;;4.85;2.13;;;;;;;17.16;39.11;98916.78;21030822;28;20054;-64
2024/01/17 09:27:05;;;;;;;3.35;1.90;;;;;;;17.21;39.15;98912.53;21011786;28;20393;-64
2024/01/17 09:37:07;;;;;;;8.13;3.50;;;;;;;17.36;40.46;98917.97;21027581;28;20048;-64
2024/01/17 09:47:15;;;;;;;5.85;2.42;;;;;;;17.55;41.72;98923.88;21037362;28;20055;-65
2024/01/17 09:57:24;;;;;;;6.50;2.88;;;;;;;17.63;41.43;98912.16;21037936;28;20130;-64
2024/01/17 10:07:26;;;;;;;4.22;2.33;;;;;;;17.62;41.10;98899.75;21021267;28;20530;-64
2024/01/17 10:17:28;;;;;;;4.63;2.35;;;;;;;17.53;40.91;98885.56;21028633;28;20110;-65
2024/01/17 10:27:30;;;;;;;3.67;1.98;;;;;;;17.54;40.56;98879.16;20975717;28;20131;-65
2024/01/17 10:37:31;;;;;;;3.80;2.25;;;;;;;17.54;40.39;98874.59;20979739;28;20455;-64
2024/01/17 10:47:33;;;;;;;4.25;2.00;;;;;;;17.54;40.08;98861.13;20999135;28;20055;-65
2024/01/17 10:57:40;;;;;;;3.40;1.92;;;;;;;17.56;39.79;98836.75;21027773;28;20121;-65
2024/01/17 11:07:42;;;;;;;4.57;2.00;;;;;;;17.63;39.52;98831.44;21033232;28;20056;-64
2024/01/17 11:17:45;;;;;;;4.05;1.80;;;;;;;17.62;39.21;98817.19;21009289;28;20048;-64
2024/01/17 11:27:49;;;;;;;2.63;1.73;;;;;;;17.60;39.18;98827.28;21002935;28;20059;-65
2024/01/17 11:37:51;;;;;;;2.92;1.60;;;;;;;17.61;39.00;98795.81;21032689;28;20048;-64
2024/01/17 11:47:56;;;;;;;3.30;1.63;;;;;;;17.59;38.88;98789.78;21029699;28;20153;-63
2024/01/17 11:58:00;;;;;;;2.60;1.80;;;;;;;17.53;38.91;98757.22;21011416;28;20784;-63
2024/01/17 12:08:05;;;;;;;2.35;1.50;;;;;;;17.57;39.37;98725.44;21032971;28;20055;-64
2024/01/17 12:18:07;;;;;;;2.57;1.67;;;;;;;17.62;39.42;98708.69;21040999;28;20052;-62
2024/01/17 12:28:09;;;;;;;4.07;1.88;;;;;;;17.72;40.37;98685.03;21025425;28;20289;-62
2024/01/17 12:38:11;;;;;;;3.67;1.70;;;;;;;17.77;40.68;98688.00;21033773;28;20092;-63
2024/01/17 12:48:15;;;;;;;5.07;1.80;;;;;;;17.83;43.65;98663.00;21017939;28;20128;-65
2024/01/17 12:58:17;;;;;;;6.05;2.00;;;;;;;17.93;43.88;98656.47;21024952;28;20139;-65
